Time,TemperatureF,DewpointF,PressureIn,WindDirection,WindDirectionDegrees,WindSpeedMPH,WindSpeedGustMPH,Humidity,HourlyPrecipIn,Conditions,Clouds,dailyrainin,SoftwareType,DateUTC
2013-08-20 00:01:00,66.0,27.2,24.75,WSW,243,3.6,3.6,23,0.00,,---,0.00,VWS V14.01,2013-08-20 06:01:00,
2013-08-20 00:06:00,66.0,27.2,24.75,WSW,245,4.0,4.0,23,0.00,,---,0.00,VWS V14.01,2013-08-20 06:06:00,
2013-08-20 00:11:00,66.0,27.2,24.75,WSW,245,0.0,0.0,23,0.00,,---,0.00,VWS V14.01,2013-08-20 06:11:00,
2013-08-20 00:16:00,65.7,26.9,24.75,WSW,245,2.7,2.7,23,0.00,,---,0.00,VWS V14.01,2013-08-20 06:16:00,
2013-08-20 00:21:00,65.1,26.4,24.75,WSW,245,2.7,3.1,23,0.00,,---,0.00,VWS V14.01,2013-08-20 06:21:00,
2013-08-20 00:26:00,64.8,26.1,24.75,WSW,245,2.7,3.1,23,0.00,,---,0.00,VWS V14.01,2013-08-20 06:26:00,
2013-08-20 00:31:00,64.6,27.0,24.75,WSW,244,3.1,3.1,24,0.00,,---,0.00,VWS V14.01,2013-08-20 06:31:00,
2013-08-20 00:36:00,64.4,26.9,24.75,SW,233,3.1,3.1,24,0.00,,---,0.00,VWS V14.01,2013-08-20 06:36:00,
2013-08-20 00:41:00,64.8,27.2,24.75,SW,230,2.7,3.1,24,0.00,,---,0.00,VWS V14.01,2013-08-20 06:41:00,
2013-08-20 00:46:00,64.8,27.2,24.75,WSW,250,4.0,4.0,24,0.00,,---,0.00,VWS V14.01,2013-08-20 06:46:00,
2013-08-20 00:51:00,64.4,26.9,24.75,WSW,250,3.1,3.1,24,0.00,,---,0.00,VWS V14.01,2013-08-20 06:51:00,
2013-08-20 00:56:00,63.9,26.4,24.75,WSW,250,0.0,0.0,24,0.00,,---,0.00,VWS V14.01,2013-08-20 06:56:00,
2013-08-20 01:01:00,63.1,25.8,24.75,WSW,250,0.0,0.0,24,0.00,,---,0.00,VWS V14.01,2013-08-20 07:01:00,
2013-08-20 01:06:00,62.6,26.3,24.75,WSW,250,0.0,0.0,25,0.00,,---,0.00,VWS V14.01,2013-08-20 07:06:00,
2013-08-20 01:11:00,62.2,26.0,24.78,WSW,250,0.0,0.0,25,0.00,,---,0.00,VWS V14.01,2013-08-20 07:11:00,
2013-08-20 01:16:00,61.9,26.6,24.78,WNW,283,3.1,3.1,26,0.00,,---,0.00,VWS V14.01,2013-08-20 07:16:00,
2013-08-20 01:21:00,61.3,26.2,24.78,WNW,283,3.1,3.6,26,0.00,,---,0.00,VWS V14.01,2013-08-20 07:21:00,
2013-08-20 01:26:00,61.2,26.0,24.78,West,264,4.0,4.0,26,0.00,,---,0.00,VWS V14.01,2013-08-20 07:26:00,
2013-08-20 01:31:00,61.0,25.9,24.78,West,266,3.1,3.1,26,0.00,,---,0.00,VWS V14.01,2013-08-20 07:31:00,
2013-08-20 01:36:00,61.0,25.9,24.78,West,266,2.7,3.6,26,0.00,,---,0.00,VWS V14.01,2013-08-20 07:36:00,
2013-08-20 01:41:00,61.3,26.2,24.78,West,265,0.0,0.0,26,0.00,,---,0.00,VWS V14.01,2013-08-20 07:41:00,
2013-08-20 01:46:00,61.2,26.9,24.78,West,265,0.0,0.0,27,0.00,,---,0.00,VWS V14.01,2013-08-20 07:46:00,
2013-08-20 01:51:00,61.2,26.9,24.78,West,278,2.7,2.7,27,0.00,,---,0.00,VWS V14.01,2013-08-20 07:51:00,
2013-08-20 01:56:00,61.0,26.8,24.78,WNW,283,2.7,3.1,27,0.00,,---,0.00,VWS V14.01,2013-08-20 07:56:00,
2013-08-20 02:01:00,60.4,27.2,24.78,West,277,2.7,3.1,28,0.00,,---,0.00,VWS V14.01,2013-08-20 08:01:00,
2013-08-20 02:06:00,60.1,26.9,24.78,West,260,2.7,2.7,28,0.00,,---,0.00,VWS V14.01,2013-08-20 08:06:00,
2013-08-20 02:11:00,60.1,27.7,24.78,WNW,291,2.7,2.7,29,0.00,,---,0.00,VWS V14.01,2013-08-20 08:11:00,
2013-08-20 02:16:00,59.9,28.4,24.78,WNW,293,3.6,3.6,30,0.00,,---,0.00,VWS V14.01,2013-08-20 08:16:00,
2013-08-20 02:21:00,59.7,28.3,24.78,WNW,293,2.2,3.1,30,0.00,,---,0.00,VWS V14.01,2013-08-20 08:21:00,
2013-08-20 02:26:00,59.5,28.1,24.78,WNW,293,0.0,0.0,30,0.00,,---,0.00,VWS V14.01,2013-08-20 08:26:00,
2013-08-20 02:31:00,59.0,28.4,24.78,WNW,291,0.0,3.1,31,0.00,,---,0.00,VWS V14.01,2013-08-20 08:31:00,
2013-08-20 02:36:00,59.0,28.4,24.78,West,263,0.0,3.6,31,0.00,,---,0.00,VWS V14.01,2013-08-20 08:36:00,
2013-08-20 02:41:00,58.8,29.0,24.78,West,263,0.0,0.0,32,0.00,,---,0.00,VWS V14.01,2013-08-20 08:41:00,
2013-08-20 02:46:00,58.6,29.6,24.78,West,263,0.0,0.0,33,0.00,,---,0.00,VWS V14.01,2013-08-20 08:46:00,
2013-08-20 02:51:00,58.5,29.5,24.78,West,263,0.0,0.0,33,0.00,,---,0.00,VWS V14.01,2013-08-20 08:51:00,
2013-08-20 02:56:00,58.3,29.3,24.78,West,263,0.0,0.0,33,0.00,,---,0.00,VWS V14.01,2013-08-20 08:56:00,
2013-08-20 03:01:00,58.3,29.3,24.78,West,263,2.7,3.1,33,0.00,,---,0.00,VWS V14.01,2013-08-20 09:01:00,
2013-08-20 03:06:00,58.3,29.3,24.78,West,263,3.1,3.6,33,0.00,,---,0.00,VWS V14.01,2013-08-20 09:06:00,
2013-08-20 03:11:00,57.9,29.7,24.78,WNW,282,3.1,3.6,34,0.00,,---,0.00,VWS V14.01,2013-08-20 09:11:00,
2013-08-20 03:16:00,57.4,30.0,24.78,WNW,300,4.0,4.0,35,0.00,,---,0.00,VWS V14.01,2013-08-20 09:16:00,
2013-08-20 03:21:00,56.8,30.2,24.78,West,260,4.0,4.0,36,0.00,,---,0.00,VWS V14.01,2013-08-20 09:21:00,
2013-08-20 03:26:00,56.5,29.9,24.78,West,266,2.2,3.1,36,0.00,,---,0.00,VWS V14.01,2013-08-20 09:26:00,
2013-08-20 03:31:00,56.5,29.9,24.78,WSW,253,2.7,3.1,36,0.00,,---,0.00,VWS V14.01,2013-08-20 09:31:00,
2013-08-20 03:36:00,56.3,29.7,24.78,WSW,253,0.0,0.0,36,0.00,,---,0.00,VWS V14.01,2013-08-20 09:36:00,
2013-08-20 03:41:00,56.1,29.5,24.78,WSW,253,0.0,0.0,36,0.00,,---,0.00,VWS V14.01,2013-08-20 09:41:00,
2013-08-20 03:46:00,55.9,29.4,24.78,WSW,253,0.0,0.0,36,0.00,,---,0.00,VWS V14.01,2013-08-20 09:46:00,
2013-08-20 03:51:00,55.8,29.2,24.78,WSW,253,0.0,0.0,36,0.00,,---,0.00,VWS V14.01,2013-08-20 09:51:00,
2013-08-20 03:56:00,55.4,29.6,24.78,WSW,253,0.0,0.0,37,0.00,,---,0.00,VWS V14.01,2013-08-20 09:56:00,
2013-08-20 04:01:00,55.0,29.3,24.78,WSW,253,0.0,0.0,37,0.00,,---,0.00,VWS V14.01,2013-08-20 10:01:00,
2013-08-20 04:06:00,54.9,29.1,24.78,WSW,256,0.0,0.0,37,0.00,,---,0.00,VWS V14.01,2013-08-20 10:06:00,
2013-08-20 04:11:00,54.5,28.8,24.78,WSW,256,0.0,0.0,37,0.00,,---,0.00,VWS V14.01,2013-08-20 10:11:00,
2013-08-20 04:16:00,54.1,29.1,24.78,WSW,256,0.0,0.0,38,0.00,,---,0.00,VWS V14.01,2013-08-20 10:16:00,
2013-08-20 04:21:00,54.1,29.1,24.78,WSW,256,0.0,0.0,38,0.00,,---,0.00,VWS V14.01,2013-08-20 10:21:00,
2013-08-20 04:26:00,54.3,29.3,24.78,WSW,256,0.0,0.0,38,0.00,,---,0.00,VWS V14.01,2013-08-20 10:26:00,
2013-08-20 04:31:00,54.3,29.9,24.78,WSW,256,0.0,0.0,39,0.00,,---,0.00,VWS V14.01,2013-08-20 10:31:00,
2013-08-20 04:36:00,54.1,29.8,24.78,West,267,0.0,0.0,39,0.00,,---,0.00,VWS V14.01,2013-08-20 10:36:00,
2013-08-20 04:41:00,54.3,29.9,24.78,West,266,2.7,3.6,39,0.00,,---,0.00,VWS V14.01,2013-08-20 10:41:00,
2013-08-20 04:46:00,54.3,29.9,24.78,West,266,2.7,2.7,39,0.00,,---,0.00,VWS V14.01,2013-08-20 10:46:00,
2013-08-20 04:51:00,54.3,29.9,24.78,West,273,3.1,3.1,39,0.00,,---,0.00,VWS V14.01,2013-08-20 10:51:00,
2013-08-20 04:56:00,54.3,29.9,24.78,WNW,291,4.0,4.9,39,0.00,,---,0.00,VWS V14.01,2013-08-20 10:56:00,
2013-08-20 05:01:00,54.5,30.1,24.78,West,265,5.4,5.4,39,0.00,,---,0.00,VWS V14.01,2013-08-20 11:01:00,
2013-08-20 05:06:00,54.7,30.2,24.78,West,265,3.1,4.0,39,0.00,,---,0.00,VWS V14.01,2013-08-20 11:06:00,
2013-08-20 05:11:00,55.0,29.9,24.78,West,265,5.4,5.4,38,0.00,,---,0.00,VWS V14.01,2013-08-20 11:11:00,
2013-08-20 05:16:00,55.6,29.7,24.78,WSW,240,4.0,5.4,37,0.00,,---,0.00,VWS V14.01,2013-08-20 11:16:00,
2013-08-20 05:21:00,55.8,29.9,24.78,West,271,3.6,5.8,37,0.00,,---,0.00,VWS V14.01,2013-08-20 11:21:00,
2013-08-20 05:26:00,55.6,29.7,24.78,WNW,293,3.6,5.4,37,0.00,,---,0.00,VWS V14.01,2013-08-20 11:26:00,
2013-08-20 05:31:00,55.2,30.1,24.78,WNW,297,3.6,5.4,38,0.00,,---,0.00,VWS V14.01,2013-08-20 11:31:00,
2013-08-20 05:36:00,55.2,30.1,24.78,WSW,256,6.3,6.3,38,0.00,,---,0.00,VWS V14.01,2013-08-20 11:36:00,
2013-08-20 05:41:00,55.2,30.1,24.78,West,263,5.8,5.8,38,0.00,,---,0.00,VWS V14.01,2013-08-20 11:41:00,
2013-08-20 05:46:00,55.0,29.9,24.78,West,279,4.0,4.0,38,0.00,,---,0.00,VWS V14.01,2013-08-20 11:46:00,
2013-08-20 05:51:00,55.0,29.9,24.78,WNW,299,4.0,4.0,38,0.00,,---,0.00,VWS V14.01,2013-08-20 11:51:00,
2013-08-20 05:56:00,55.0,29.9,24.78,WNW,283,2.7,3.6,38,0.00,,---,0.00,VWS V14.01,2013-08-20 11:56:00,
2013-08-20 06:01:00,54.9,30.4,24.78,WNW,284,3.1,3.1,39,0.00,,---,0.00,VWS V14.01,2013-08-20 12:01:00,
2013-08-20 06:06:00,54.7,30.2,24.78,West,259,4.0,4.0,39,0.00,,---,0.00,VWS V14.01,2013-08-20 12:06:00,
2013-08-20 06:11:00,54.5,30.1,24.78,WSW,246,4.0,4.0,39,0.00,,---,0.00,VWS V14.01,2013-08-20 12:11:00,
2013-08-20 06:16:00,54.5,30.1,24.78,WSW,249,2.7,3.1,39,0.00,,---,0.00,VWS V14.01,2013-08-20 12:16:00,
2013-08-20 06:21:00,54.3,29.9,24.78,WSW,249,2.2,2.7,39,0.00,,---,0.00,VWS V14.01,2013-08-20 12:21:00,
2013-08-20 06:26:00,54.1,29.8,24.78,WSW,250,2.7,3.6,39,0.00,,---,0.00,VWS V14.01,2013-08-20 12:26:00,
2013-08-20 06:31:00,54.0,30.2,24.78,WSW,250,4.0,4.0,40,0.00,,---,0.00,VWS V14.01,2013-08-20 12:31:00,
2013-08-20 06:36:00,53.8,30.0,24.78,West,264,3.1,3.1,40,0.00,,---,0.00,VWS V14.01,2013-08-20 12:36:00,
2013-08-20 06:41:00,53.6,30.5,24.78,WSW,253,4.0,4.0,41,0.00,,---,0.00,VWS V14.01,2013-08-20 12:41:00,
2013-08-20 06:46:00,53.2,30.8,24.78,West,264,4.0,4.9,42,0.00,,---,0.00,VWS V14.01,2013-08-20 12:46:00,
2013-08-20 06:51:00,53.1,30.6,24.78,West,276,2.7,3.6,42,0.00,,---,0.00,VWS V14.01,2013-08-20 12:51:00,
2013-08-20 06:56:00,53.1,31.2,24.81,WSW,253,3.6,4.9,43,0.00,,---,0.00,VWS V14.01,2013-08-20 12:56:00,
2013-08-20 07:01:00,53.1,31.2,24.81,West,260,4.9,5.8,43,0.00,,---,0.00,VWS V14.01,2013-08-20 13:01:00,
2013-08-20 07:06:00,53.6,31.1,24.81,WNW,291,4.0,6.3,42,0.00,,---,0.00,VWS V14.01,2013-08-20 13:06:00,
2013-08-20 07:11:00,53.6,31.7,24.81,WNW,295,4.0,4.0,43,0.00,,---,0.00,VWS V14.01,2013-08-20 13:11:00,
2013-08-20 07:16:00,53.8,31.2,24.81,NW,307,3.6,5.4,42,0.00,,---,0.00,VWS V14.01,2013-08-20 13:16:00,
2013-08-20 07:21:00,53.8,31.2,24.81,WNW,302,4.0,5.8,42,0.00,,---,0.00,VWS V14.01,2013-08-20 13:21:00,
2013-08-20 07:26:00,54.0,32.0,24.81,West,281,4.9,5.8,43,0.00,,---,0.00,VWS V14.01,2013-08-20 13:26:00,
2013-08-20 07:31:00,54.1,32.7,24.81,NW,305,4.0,5.8,44,0.00,,---,0.00,VWS V14.01,2013-08-20 13:31:00,
2013-08-20 07:36:00,54.1,32.7,24.81,WNW,295,4.0,4.0,44,0.00,,---,0.00,VWS V14.01,2013-08-20 13:36:00,
2013-08-20 07:41:00,54.3,32.9,24.81,West,280,3.1,4.9,44,0.00,,---,0.00,VWS V14.01,2013-08-20 13:41:00,
2013-08-20 07:46:00,54.5,33.6,24.81,West,270,2.2,4.0,45,0.00,,---,0.00,VWS V14.01,2013-08-20 13:46:00,
2013-08-20 07:51:00,54.7,33.8,24.81,West,264,4.9,6.3,45,0.00,,---,0.00,VWS V14.01,2013-08-20 13:51:00,
2013-08-20 07:55:00,55.2,33.7,24.81,West,261,4.0,5.4,44,0.00,,---,0.00,VWS V14.01,2013-08-20 13:55:00,
2013-08-20 08:00:00,55.8,34.2,24.81,WSW,250,4.0,5.4,44,0.00,,---,0.00,VWS V14.01,2013-08-20 14:00:00,
2013-08-20 08:05:00,56.1,34.0,24.81,WSW,256,3.6,4.0,43,0.00,,---,0.00,VWS V14.01,2013-08-20 14:05:00,
2013-08-20 08:10:00,56.7,34.4,24.81,West,263,3.1,4.0,43,0.00,,---,0.00,VWS V14.01,2013-08-20 14:10:00,
2013-08-20 08:15:00,57.0,34.2,24.81,WSW,250,3.1,4.0,42,0.00,,---,0.00,VWS V14.01,2013-08-20 14:15:00,
2013-08-20 08:20:00,57.9,34.4,24.81,West,267,3.6,4.0,41,0.00,,---,0.00,VWS V14.01,2013-08-20 14:20:00,
2013-08-20 08:25:00,58.3,34.7,24.81,West,276,2.7,3.1,41,0.00,,---,0.00,VWS V14.01,2013-08-20 14:25:00,
2013-08-20 08:30:00,58.8,34.6,24.81,WSW,251,2.2,2.7,40,0.00,,---,0.00,VWS V14.01,2013-08-20 14:30:00,
2013-08-20 08:35:00,59.5,34.6,24.81,WSW,248,0.0,2.7,39,0.00,,---,0.00,VWS V14.01,2013-08-20 14:35:00,
2013-08-20 08:40:00,60.1,35.1,24.81,WSW,248,0.0,0.0,39,0.00,,---,0.00,VWS V14.01,2013-08-20 14:40:00,
2013-08-20 08:45:00,60.8,35.1,24.81,WSW,251,0.0,0.0,38,0.00,,---,0.00,VWS V14.01,2013-08-20 14:45:00,
2013-08-20 08:50:00,61.3,34.9,24.81,WNW,286,0.0,0.0,37,0.00,,---,0.00,VWS V14.01,2013-08-20 14:50:00,
2013-08-20 08:55:00,62.1,34.8,24.81,NW,319,0.0,0.0,36,0.00,,---,0.00,VWS V14.01,2013-08-20 14:55:00,
2013-08-20 09:00:00,62.6,34.6,24.81,NW,319,0.0,0.0,35,0.00,,---,0.00,VWS V14.01,2013-08-20 15:00:00,
2013-08-20 09:05:00,63.0,34.9,24.81,NW,319,0.0,0.0,35,0.00,,---,0.00,VWS V14.01,2013-08-20 15:05:00,
2013-08-20 09:10:00,63.5,35.4,24.81,NW,319,0.0,0.0,35,0.00,,---,0.00,VWS V14.01,2013-08-20 15:10:00,
2013-08-20 09:15:00,64.2,36.0,24.81,NW,319,0.0,0.0,35,0.00,,---,0.00,VWS V14.01,2013-08-20 15:15:00,
2013-08-20 09:20:00,64.8,35.8,24.81,NNW,342,0.0,0.0,34,0.00,,---,0.00,VWS V14.01,2013-08-20 15:20:00,
2013-08-20 09:25:00,65.8,36.7,24.81,NE,38,3.1,3.1,34,0.00,,---,0.00,VWS V14.01,2013-08-20 15:25:00,
2013-08-20 09:30:00,66.6,37.3,24.81,NE,41,2.7,5.4,34,0.00,,---,0.00,VWS V14.01,2013-08-20 15:30:00,
2013-08-20 09:35:00,67.5,37.4,24.81,ENE,62,4.0,4.0,33,0.00,,---,0.00,VWS V14.01,2013-08-20 15:35:00,
2013-08-20 09:40:00,68.2,37.2,24.81,NE,51,4.0,5.8,32,0.00,,---,0.00,VWS V14.01,2013-08-20 15:40:00,
2013-08-20 09:45:00,68.5,37.5,24.81,NE,46,6.3,6.3,32,0.00,,---,0.00,VWS V14.01,2013-08-20 15:45:00,
2013-08-20 09:50:00,68.9,37.8,24.81,ENE,61,3.6,3.6,32,0.00,,---,0.00,VWS V14.01,2013-08-20 15:50:00,
2013-08-20 09:55:00,69.1,38.0,24.81,NE,46,3.6,4.0,32,0.00,,---,0.00,VWS V14.01,2013-08-20 15:55:00,
2013-08-20 10:00:00,69.3,36.5,24.81,ENE,62,6.3,6.3,30,0.00,,---,0.00,VWS V14.01,2013-08-20 16:00:00,
2013-08-20 10:05:00,69.4,36.7,24.81,NE,56,4.0,4.0,30,0.00,,---,0.00,VWS V14.01,2013-08-20 16:05:00,
2013-08-20 10:10:00,69.8,37.0,24.78,ENE,64,4.0,4.0,30,0.00,,---,0.00,VWS V14.01,2013-08-20 16:10:00,
2013-08-20 10:15:00,70.3,37.5,24.78,NE,41,4.0,5.8,30,0.00,,---,0.00,VWS V14.01,2013-08-20 16:15:00,
2013-08-20 10:20:00,70.9,37.1,24.78,NE,51,4.9,4.9,29,0.00,,---,0.00,VWS V14.01,2013-08-20 16:20:00,
2013-08-20 10:25:00,71.1,38.1,24.78,ENE,73,3.1,4.0,30,0.00,,---,0.00,VWS V14.01,2013-08-20 16:25:00,
2013-08-20 10:30:00,71.2,37.4,24.78,ENE,62,4.0,4.0,29,0.00,,---,0.00,VWS V14.01,2013-08-20 16:30:00,
2013-08-20 10:35:00,71.6,37.7,24.78,NE,39,3.6,6.3,29,0.00,,---,0.00,VWS V14.01,2013-08-20 16:35:00,
2013-08-20 10:40:00,71.6,37.7,24.78,NE,44,4.0,5.4,29,0.00,,---,0.00,VWS V14.01,2013-08-20 16:40:00,
2013-08-20 10:45:00,71.6,37.7,24.78,ENE,64,6.3,6.3,29,0.00,,---,0.00,VWS V14.01,2013-08-20 16:45:00,
2013-08-20 10:50:00,72.3,38.3,24.78,NE,56,6.3,6.3,29,0.00,,---,0.00,VWS V14.01,2013-08-20 16:50:00,
2013-08-20 10:55:00,73.0,38.0,24.78,NE,35,4.0,6.3,28,0.00,,---,0.00,VWS V14.01,2013-08-20 16:55:00,
2013-08-20 11:00:00,73.6,38.5,24.78,North,5,3.1,5.4,28,0.00,,---,0.00,VWS V14.01,2013-08-20 17:00:00,
2013-08-20 11:05:00,73.8,38.7,24.78,NE,34,5.4,5.8,28,0.00,,---,0.00,VWS V14.01,2013-08-20 17:05:00,
2013-08-20 11:10:00,74.3,38.2,24.78,ENE,67,3.6,3.6,27,0.00,,---,0.00,VWS V14.01,2013-08-20 17:10:00,
2013-08-20 11:15:00,75.2,37.0,24.78,NE,49,3.6,4.9,25,0.00,,---,0.00,VWS V14.01,2013-08-20 17:15:00,
2013-08-20 11:20:00,75.7,37.5,24.78,East,79,4.9,4.9,25,0.00,,---,0.00,VWS V14.01,2013-08-20 17:20:00,
2013-08-20 11:25:00,76.1,37.8,24.78,NE,47,3.6,5.4,25,0.00,,---,0.00,VWS V14.01,2013-08-20 17:25:00,
2013-08-20 11:30:00,76.5,37.0,24.78,NE,43,2.2,4.0,24,0.00,,---,0.00,VWS V14.01,2013-08-20 17:30:00,
2013-08-20 11:35:00,77.0,37.5,24.78,NE,43,0.0,0.0,24,0.00,,---,0.00,VWS V14.01,2013-08-20 17:35:00,
2013-08-20 11:40:00,77.7,37.0,24.78,NW,313,4.0,4.0,23,0.00,,---,0.00,VWS V14.01,2013-08-20 17:40:00,
2013-08-20 11:45:00,77.5,35.7,24.78,NNW,328,3.1,3.6,22,0.00,,---,0.00,VWS V14.01,2013-08-20 17:45:00,
2013-08-20 11:50:00,76.5,36.0,24.78,NE,53,2.7,5.4,23,0.00,,---,0.00,VWS V14.01,2013-08-20 17:50:00,
2013-08-20 11:55:00,76.6,38.2,24.78,North,10,5.4,5.4,25,0.00,,---,0.00,VWS V14.01,2013-08-20 17:55:00,
2013-08-20 12:00:00,77.5,37.9,24.78,NNE,14,2.7,5.4,24,0.00,,---,0.00,VWS V14.01,2013-08-20 18:00:00,
2013-08-20 12:05:00,77.7,37.0,24.78,NE,46,0.0,0.0,23,0.00,,---,0.00,VWS V14.01,2013-08-20 18:05:00,
2013-08-20 12:10:00,78.3,37.5,24.75,NE,51,4.0,5.4,23,0.00,,---,0.00,VWS V14.01,2013-08-20 18:10:00,
2013-08-20 12:15:00,79.0,38.1,24.75,WNW,291,0.0,3.1,23,0.00,,---,0.00,VWS V14.01,2013-08-20 18:15:00,
2013-08-20 12:20:00,78.3,36.3,24.75,NNW,328,4.0,4.0,22,0.00,,---,0.00,VWS V14.01,2013-08-20 18:20:00,
2013-08-20 12:25:00,77.9,36.0,24.75,WNW,296,5.4,5.4,22,0.00,,---,0.00,VWS V14.01,2013-08-20 18:25:00,
2013-08-20 12:30:00,77.4,35.6,24.75,WNW,303,4.9,4.9,22,0.00,,---,0.00,VWS V14.01,2013-08-20 18:30:00,
2013-08-20 12:35:00,77.7,37.0,24.75,WSW,256,2.7,2.7,23,0.00,,---,0.00,VWS V14.01,2013-08-20 18:35:00,
2013-08-20 12:40:00,78.4,36.5,24.75,SW,236,5.4,5.4,22,0.00,,---,0.00,VWS V14.01,2013-08-20 18:40:00,
2013-08-20 12:45:00,78.4,35.3,24.75,West,264,8.3,8.3,21,0.00,,---,0.00,VWS V14.01,2013-08-20 18:45:00,
2013-08-20 12:50:00,78.6,35.5,24.75,West,259,5.4,5.4,21,0.00,,---,0.00,VWS V14.01,2013-08-20 18:50:00,
2013-08-20 12:55:00,78.8,35.6,24.75,NNW,334,4.0,5.4,21,0.00,,---,0.00,VWS V14.01,2013-08-20 18:55:00,
2013-08-20 13:00:00,79.2,35.9,24.75,SSW,208,2.7,3.1,21,0.00,,---,0.00,VWS V14.01,2013-08-20 19:00:00,
2013-08-20 13:05:00,79.3,37.2,24.75,NW,314,0.0,0.0,22,0.00,,---,0.00,VWS V14.01,2013-08-20 19:05:00,
2013-08-20 13:10:00,80.4,38.1,24.75,NNE,29,2.7,3.1,22,0.00,,---,0.00,VWS V14.01,2013-08-20 19:10:00,
2013-08-20 13:15:00,81.5,39.0,24.75,NE,39,0.0,2.7,22,0.00,,---,0.00,VWS V14.01,2013-08-20 19:15:00,
2013-08-20 13:20:00,82.2,37.2,24.75,NW,311,4.0,5.4,20,0.00,,---,0.00,VWS V14.01,2013-08-20 19:20:00,
2013-08-20 13:25:00,81.7,36.8,24.75,WNW,293,8.3,8.3,20,0.00,,---,0.00,VWS V14.01,2013-08-20 19:25:00,
2013-08-20 13:30:00,81.9,36.9,24.75,WNW,299,3.6,7.6,20,0.00,,---,0.00,VWS V14.01,2013-08-20 19:30:00,
2013-08-20 13:35:00,82.4,36.0,24.75,WNW,300,6.3,8.7,19,0.00,,---,0.00,VWS V14.01,2013-08-20 19:35:00,
2013-08-20 13:40:00,82.6,36.2,24.72,NW,309,10.5,14.1,19,0.00,,---,0.00,VWS V14.01,2013-08-20 19:40:00,
2013-08-20 13:45:00,82.4,36.0,24.72,West,279,8.1,12.3,19,0.00,,---,0.00,VWS V14.01,2013-08-20 19:45:00,
2013-08-20 13:50:00,82.8,36.3,24.72,NW,310,10.1,10.1,19,0.00,,---,0.00,VWS V14.01,2013-08-20 19:50:00,
2013-08-20 13:55:00,82.6,31.9,24.72,WNW,294,8.1,8.1,16,0.00,,---,0.00,VWS V14.01,2013-08-20 19:55:00,
2013-08-20 14:00:00,82.8,32.0,24.72,NW,315,12.8,12.8,16,0.00,,---,0.00,VWS V14.01,2013-08-20 20:00:00,
2013-08-20 14:05:00,82.9,32.2,24.72,West,259,7.6,10.1,16,0.00,,---,0.00,VWS V14.01,2013-08-20 20:05:00,
2013-08-20 14:10:00,82.9,32.2,24.72,WSW,241,8.3,12.3,16,0.00,,---,0.00,VWS V14.01,2013-08-20 20:10:00,
2013-08-20 14:15:00,83.1,32.3,24.72,WNW,303,8.3,8.7,16,0.00,,---,0.00,VWS V14.01,2013-08-20 20:15:00,
2013-08-20 14:20:00,83.1,32.3,24.72,WNW,286,12.3,15.4,16,0.00,,---,0.00,VWS V14.01,2013-08-20 20:20:00,
2013-08-20 14:25:00,82.9,32.2,24.72,WNW,300,8.3,13.2,16,0.00,,---,0.00,VWS V14.01,2013-08-20 20:25:00,
2013-08-20 14:30:00,82.9,32.2,24.72,West,259,8.7,10.5,16,0.00,,---,0.00,VWS V14.01,2013-08-20 20:30:00,
2013-08-20 14:35:00,83.3,32.5,24.72,WNW,297,10.1,10.1,16,0.00,,---,0.00,VWS V14.01,2013-08-20 20:35:00,
2013-08-20 14:40:00,83.3,32.5,24.72,West,266,7.6,13.2,16,0.00,,---,0.00,VWS V14.01,2013-08-20 20:40:00,
2013-08-20 14:45:00,83.3,32.5,24.72,West,277,8.1,8.1,16,0.00,,---,0.00,VWS V14.01,2013-08-20 20:45:00,
2013-08-20 14:50:00,83.7,29.5,24.72,NW,317,6.3,11.0,14,0.00,,---,0.00,VWS V14.01,2013-08-20 20:50:00,
2013-08-20 14:55:00,83.7,32.8,24.72,WSW,251,10.1,10.1,16,0.00,,---,0.00,VWS V14.01,2013-08-20 20:55:00,
2013-08-20 15:00:00,83.8,32.9,24.72,WSW,244,5.4,6.3,16,0.00,,---,0.00,VWS V14.01,2013-08-20 21:00:00,
2013-08-20 15:05:00,84.0,29.8,24.72,West,281,8.3,11.4,14,0.00,,---,0.00,VWS V14.01,2013-08-20 21:05:00,
2013-08-20 15:10:00,83.8,29.6,24.72,WSW,246,8.7,8.7,14,0.00,,---,0.00,VWS V14.01,2013-08-20 21:10:00,
2013-08-20 15:15:00,83.7,32.8,24.72,West,265,11.0,11.0,16,0.00,,---,0.00,VWS V14.01,2013-08-20 21:15:00,
2013-08-20 15:20:00,83.7,29.5,24.72,WNW,293,12.8,12.8,14,0.00,,---,0.00,VWS V14.01,2013-08-20 21:20:00,
2013-08-20 15:25:00,83.8,29.6,24.72,SW,233,3.6,3.6,14,0.00,,---,0.00,VWS V14.01,2013-08-20 21:25:00,
2013-08-20 15:30:00,84.0,33.0,24.72,NW,311,5.4,7.6,16,0.00,,---,0.00,VWS V14.01,2013-08-20 21:30:00,
2013-08-20 15:35:00,83.8,29.6,24.72,WNW,302,5.8,7.6,14,0.00,,---,0.00,VWS V14.01,2013-08-20 21:35:00,
2013-08-20 15:40:00,83.8,29.6,24.72,WNW,300,8.7,14.5,14,0.00,,---,0.00,VWS V14.01,2013-08-20 21:40:00,
2013-08-20 15:45:00,83.8,29.6,24.72,West,276,8.1,12.3,14,0.00,,---,0.00,VWS V14.01,2013-08-20 21:45:00,
2013-08-20 15:50:00,84.0,29.8,24.72,WSW,256,6.7,6.7,14,0.00,,---,0.00,VWS V14.01,2013-08-20 21:50:00,
2013-08-20 15:55:00,84.4,28.2,24.72,WNW,289,8.7,8.7,13,0.00,,---,0.00,VWS V14.01,2013-08-20 21:55:00,
2013-08-20 16:00:00,84.0,29.8,24.72,WSW,246,14.1,14.1,14,0.00,,---,0.00,VWS V14.01,2013-08-20 22:00:00,
2013-08-20 16:05:00,84.0,29.8,24.72,NW,309,11.0,13.2,14,0.00,,---,0.00,VWS V14.01,2013-08-20 22:05:00,
2013-08-20 16:10:00,83.8,29.6,24.72,West,277,6.3,10.1,14,0.00,,---,0.00,VWS V14.01,2013-08-20 22:10:00,
2013-08-20 16:15:00,84.4,33.3,24.72,WSW,248,8.1,8.1,16,0.00,,---,0.00,VWS V14.01,2013-08-20 22:15:00,
2013-08-20 16:20:00,84.2,28.1,24.72,WNW,291,8.1,8.7,13,0.00,,---,0.00,VWS V14.01,2013-08-20 22:20:00,
2013-08-20 16:25:00,84.4,28.2,24.72,West,281,8.7,11.0,13,0.00,,---,0.00,VWS V14.01,2013-08-20 22:25:00,
2013-08-20 16:30:00,84.2,28.1,24.72,WSW,252,8.1,8.1,13,0.00,,---,0.00,VWS V14.01,2013-08-20 22:30:00,
2013-08-20 16:35:00,84.6,28.4,24.72,West,277,6.3,6.3,13,0.00,,---,0.00,VWS V14.01,2013-08-20 22:35:00,
2013-08-20 16:40:00,84.6,28.4,24.72,WSW,253,10.1,10.5,13,0.00,,---,0.00,VWS V14.01,2013-08-20 22:40:00,
2013-08-20 16:45:00,84.4,28.2,24.69,West,271,4.5,14.5,13,0.00,,---,0.00,VWS V14.01,2013-08-20 22:45:00,
2013-08-20 16:50:00,84.4,28.2,24.69,NW,321,8.1,8.7,13,0.00,,---,0.00,VWS V14.01,2013-08-20 22:50:00,
2013-08-20 16:55:00,84.7,28.5,24.69,West,273,8.7,10.1,13,0.00,,---,0.00,VWS V14.01,2013-08-20 22:55:00,
2013-08-20 17:00:00,84.6,28.4,24.69,WNW,295,6.3,7.6,13,0.00,,---,0.00,VWS V14.01,2013-08-20 23:00:00,
2013-08-20 17:05:00,84.7,28.5,24.69,WSW,245,4.0,8.3,13,0.00,,---,0.00,VWS V14.01,2013-08-20 23:05:00,
2013-08-20 17:10:00,84.7,28.5,24.69,WNW,293,7.6,8.3,13,0.00,,---,0.00,VWS V14.01,2013-08-20 23:10:00,
2013-08-20 17:15:00,84.6,28.4,24.69,NW,322,8.1,8.1,13,0.00,,---,0.00,VWS V14.01,2013-08-20 23:15:00,
2013-08-20 17:20:00,84.4,28.2,24.69,West,262,7.6,11.0,13,0.00,,---,0.00,VWS V14.01,2013-08-20 23:20:00,
2013-08-20 17:25:00,84.0,29.8,24.69,WNW,291,10.1,10.5,14,0.00,,---,0.00,VWS V14.01,2013-08-20 23:25:00,
2013-08-20 17:30:00,83.7,29.5,24.69,SW,224,7.6,7.6,14,0.00,,---,0.00,VWS V14.01,2013-08-20 23:30:00,
2013-08-20 17:35:00,83.7,29.5,24.69,WSW,257,4.9,10.1,14,0.00,,---,0.00,VWS V14.01,2013-08-20 23:35:00,
2013-08-20 17:40:00,83.5,29.3,24.69,WNW,290,10.5,12.8,14,0.00,,---,0.00,VWS V14.01,2013-08-20 23:40:00,
2013-08-20 17:45:00,83.1,29.0,24.69,NW,304,4.9,10.5,14,0.00,,---,0.00,VWS V14.01,2013-08-20 23:45:00,
2013-08-20 17:50:00,83.1,29.0,24.69,West,281,13.2,13.2,14,0.00,,---,0.00,VWS V14.01,2013-08-20 23:50:00,
2013-08-20 17:54:00,83.1,29.0,24.69,NW,313,7.6,11.9,14,0.00,,---,0.00,VWS V14.01,2013-08-20 23:54:00,
2013-08-20 17:59:00,83.3,29.2,24.69,WNW,301,8.1,8.7,14,0.00,,---,0.00,VWS V14.01,2013-08-20 23:59:00,
2013-08-20 18:04:00,83.3,29.2,24.69,SW,218,7.6,7.6,14,0.00,,---,0.00,VWS V14.01,2013-08-21 00:04:00,
2013-08-20 18:09:00,83.3,32.5,24.69,WNW,287,9.6,9.6,16,0.00,,---,0.00,VWS V14.01,2013-08-21 00:09:00,
2013-08-20 18:14:00,83.1,32.3,24.69,SW,230,7.6,7.6,16,0.00,,---,0.00,VWS V14.01,2013-08-21 00:14:00,
2013-08-20 18:19:00,82.8,28.8,24.69,WSW,240,8.1,11.0,14,0.00,,---,0.00,VWS V14.01,2013-08-21 00:19:00,
2013-08-20 18:24:00,82.8,32.0,24.69,WNW,294,10.5,10.5,16,0.00,,---,0.00,VWS V14.01,2013-08-21 00:24:00,
2013-08-20 18:29:00,82.6,31.9,24.69,WNW,295,11.0,12.3,16,0.00,,---,0.00,VWS V14.01,2013-08-21 00:29:00,
2013-08-20 18:34:00,82.4,31.8,24.69,WNW,291,7.6,8.3,16,0.00,,---,0.00,VWS V14.01,2013-08-21 00:34:00,
2013-08-20 18:39:00,82.0,33.0,24.69,WNW,294,7.6,7.6,17,0.00,,---,0.00,VWS V14.01,2013-08-21 00:39:00,
2013-08-20 18:44:00,82.0,33.0,24.69,WNW,299,8.1,8.7,17,0.00,,---,0.00,VWS V14.01,2013-08-21 00:44:00,
2013-08-20 18:49:00,81.7,32.7,24.69,West,269,6.3,9.6,17,0.00,,---,0.00,VWS V14.01,2013-08-21 00:49:00,
2013-08-20 18:54:00,81.7,32.7,24.69,NW,316,8.1,9.2,17,0.00,,---,0.00,VWS V14.01,2013-08-21 00:54:00,
2013-08-20 18:59:00,81.3,32.4,24.72,WNW,298,8.1,9.6,17,0.00,,---,0.00,VWS V14.01,2013-08-21 00:59:00,
2013-08-20 19:04:00,81.0,32.1,24.72,West,264,5.8,6.3,17,0.00,,---,0.00,VWS V14.01,2013-08-21 01:04:00,
2013-08-20 19:09:00,80.8,32.0,24.72,WNW,294,10.5,11.0,17,0.00,,---,0.00,VWS V14.01,2013-08-21 01:09:00,
2013-08-20 19:14:00,80.6,31.8,24.69,WNW,300,7.2,8.7,17,0.00,,---,0.00,VWS V14.01,2013-08-21 01:14:00,
2013-08-20 19:19:00,80.6,31.8,24.69,West,273,6.3,9.6,17,0.00,,---,0.00,VWS V14.01,2013-08-21 01:19:00,
2013-08-20 19:24:00,80.2,31.5,24.69,WSW,252,6.7,6.7,17,0.00,,---,0.00,VWS V14.01,2013-08-21 01:24:00,
2013-08-20 19:29:00,79.9,31.2,24.69,West,263,5.4,8.7,17,0.00,,---,0.00,VWS V14.01,2013-08-21 01:29:00,
2013-08-20 19:34:00,79.7,31.1,24.69,WNW,291,12.3,13.6,17,0.00,,---,0.00,VWS V14.01,2013-08-21 01:34:00,
2013-08-20 19:39:00,79.3,30.8,24.69,WNW,297,6.3,6.3,17,0.00,,---,0.00,VWS V14.01,2013-08-21 01:39:00,
2013-08-20 19:44:00,79.3,30.8,24.72,West,271,0.0,4.0,17,0.00,,---,0.00,VWS V14.01,2013-08-21 01:44:00,
2013-08-20 19:49:00,79.2,30.6,24.72,NNW,333,2.2,3.1,17,0.00,,---,0.00,VWS V14.01,2013-08-21 01:49:00,
2013-08-20 19:54:00,79.0,30.5,24.72,West,271,6.3,6.3,17,0.00,,---,0.00,VWS V14.01,2013-08-21 01:54:00,
2013-08-20 19:59:00,78.8,30.4,24.72,WSW,241,7.6,7.6,17,0.00,,---,0.00,VWS V14.01,2013-08-21 01:59:00,
2013-08-20 20:04:00,78.4,31.5,24.72,West,272,8.3,8.3,18,0.00,,---,0.00,VWS V14.01,2013-08-21 02:04:00,
2013-08-20 20:09:00,77.7,30.9,24.72,WNW,289,2.7,5.4,18,0.00,,---,0.00,VWS V14.01,2013-08-21 02:09:00,
2013-08-20 20:14:00,77.2,30.4,24.72,SW,233,3.6,3.6,18,0.00,,---,0.00,VWS V14.01,2013-08-21 02:14:00,
2013-08-20 20:19:00,76.6,30.0,24.72,West,259,2.7,3.6,18,0.00,,---,0.00,VWS V14.01,2013-08-21 02:19:00,
2013-08-20 20:24:00,76.1,29.6,24.72,WSW,257,4.0,4.0,18,0.00,,---,0.00,VWS V14.01,2013-08-21 02:24:00,
2013-08-20 20:29:00,75.9,29.4,24.72,NW,314,6.3,6.3,18,0.00,,---,0.00,VWS V14.01,2013-08-21 02:29:00,
2013-08-20 20:34:00,75.6,29.1,24.72,WNW,302,3.1,4.9,18,0.00,,---,0.00,VWS V14.01,2013-08-21 02:34:00,
2013-08-20 20:39:00,75.4,31.6,24.72,West,276,2.2,2.7,20,0.00,,---,0.00,VWS V14.01,2013-08-21 02:39:00,
2013-08-20 20:44:00,75.0,32.5,24.72,West,279,0.0,0.0,21,0.00,,---,0.00,VWS V14.01,2013-08-21 02:44:00,
2013-08-20 20:49:00,74.5,32.0,24.72,West,280,0.0,0.0,21,0.00,,---,0.00,VWS V14.01,2013-08-21 02:49:00,
2013-08-20 20:54:00,73.9,31.6,24.72,West,280,0.0,0.0,21,0.00,,---,0.00,VWS V14.01,2013-08-21 02:54:00,
2013-08-20 20:59:00,73.2,31.0,24.75,West,280,0.0,0.0,21,0.00,,---,0.00,VWS V14.01,2013-08-21 02:59:00,
2013-08-20 21:04:00,72.5,31.5,24.75,West,280,0.0,0.0,22,0.00,,---,0.00,VWS V14.01,2013-08-21 03:04:00,
2013-08-20 21:09:00,72.0,31.1,24.75,West,280,0.0,0.0,22,0.00,,---,0.00,VWS V14.01,2013-08-21 03:09:00,
2013-08-20 21:14:00,71.2,30.5,24.75,West,280,0.0,0.0,22,0.00,,---,0.00,VWS V14.01,2013-08-21 03:14:00,
2013-08-20 21:19:00,70.5,31.0,24.75,SE,139,4.0,4.0,23,0.00,,---,0.00,VWS V14.01,2013-08-21 03:19:00,
2013-08-20 21:24:00,69.8,30.4,24.75,SSE,147,5.8,5.8,23,0.00,,---,0.00,VWS V14.01,2013-08-21 03:24:00,
2013-08-20 21:29:00,69.6,31.3,24.75,SE,127,3.6,6.3,24,0.00,,---,0.00,VWS V14.01,2013-08-21 03:29:00,
2013-08-20 21:34:00,69.6,32.3,24.75,SE,124,4.9,4.9,25,0.00,,---,0.00,VWS V14.01,2013-08-21 03:34:00,
2013-08-20 21:39:00,69.4,32.1,24.75,ENE,65,3.1,4.0,25,0.00,,---,0.00,VWS V14.01,2013-08-21 03:39:00,
2013-08-20 21:44:00,69.3,32.0,24.75,SE,140,2.2,2.7,25,0.00,,---,0.00,VWS V14.01,2013-08-21 03:44:00,
2013-08-20 21:49:00,68.9,31.7,24.75,ENE,69,4.0,4.0,25,0.00,,---,0.00,VWS V14.01,2013-08-21 03:49:00,
2013-08-20 21:54:00,68.5,31.4,24.75,ENE,75,0.0,0.0,25,0.00,,---,0.00,VWS V14.01,2013-08-21 03:54:00,
2013-08-20 21:59:00,68.2,32.0,24.78,ENE,75,0.0,0.0,26,0.00,,---,0.00,VWS V14.01,2013-08-21 03:59:00,
2013-08-20 22:01:00,68.2,32.0,24.78,ENE,75,0.0,0.0,26,0.00,,---,0.00,VWS V14.01,2013-08-21 04:01:00,
2013-08-20 22:06:00,67.6,31.6,24.78,ESE,118,3.1,4.0,26,0.00,,---,0.00,VWS V14.01,2013-08-21 04:06:00,
2013-08-20 22:11:00,67.6,32.5,24.78,ESE,104,3.1,4.9,27,0.00,,---,0.00,VWS V14.01,2013-08-21 04:11:00,
2013-08-20 22:16:00,67.5,32.3,24.78,SE,143,4.0,5.4,27,0.00,,---,0.00,VWS V14.01,2013-08-21 04:16:00,
2013-08-20 22:21:00,67.3,32.2,24.78,SE,144,0.0,0.0,27,0.00,,---,0.00,VWS V14.01,2013-08-21 04:21:00,
2013-08-20 22:26:00,67.1,32.0,24.78,SE,144,0.0,0.0,27,0.00,,---,0.00,VWS V14.01,2013-08-21 04:26:00,
2013-08-20 22:31:00,66.7,31.7,24.78,WNW,300,0.0,0.0,27,0.00,,---,0.00,VWS V14.01,2013-08-21 04:31:00,
2013-08-20 22:36:00,66.4,32.3,24.78,SE,130,3.1,3.1,28,0.00,,---,0.00,VWS V14.01,2013-08-21 04:36:00,
2013-08-20 22:41:00,65.8,31.9,24.78,SSE,154,5.8,6.3,28,0.00,,---,0.00,VWS V14.01,2013-08-21 04:41:00,
2013-08-20 22:46:00,66.2,32.2,24.78,SE,143,5.4,7.6,28,0.00,,---,0.00,VWS V14.01,2013-08-21 04:46:00,
2013-08-20 22:51:00,66.7,32.6,24.78,SE,124,6.3,6.3,28,0.00,,---,0.00,VWS V14.01,2013-08-21 04:51:00,
2013-08-20 22:56:00,66.7,32.6,24.78,ENE,75,3.1,4.9,28,0.00,,---,0.00,VWS V14.01,2013-08-21 04:56:00,
2013-08-20 23:01:00,66.6,32.5,24.78,SE,131,0.0,0.0,28,0.00,,---,0.00,VWS V14.01,2013-08-21 05:01:00,
2013-08-20 23:06:00,66.2,32.2,24.78,ENE,61,2.2,2.2,28,0.00,,---,0.00,VWS V14.01,2013-08-21 05:06:00,
2013-08-20 23:11:00,65.8,32.7,24.78,NE,50,4.9,4.9,29,0.00,,---,0.00,VWS V14.01,2013-08-21 05:11:00,
2013-08-20 23:16:00,65.1,32.9,24.78,SSW,207,2.7,3.6,30,0.00,,---,0.00,VWS V14.01,2013-08-21 05:16:00,
2013-08-20 23:21:00,65.5,33.3,24.78,ENE,61,3.6,4.9,30,0.00,,---,0.00,VWS V14.01,2013-08-21 05:21:00,
2013-08-20 23:26:00,65.5,33.3,24.78,NNW,329,2.2,4.0,30,0.00,,---,0.00,VWS V14.01,2013-08-21 05:26:00,
2013-08-20 23:31:00,64.8,33.5,24.78,NNE,22,0.0,0.0,31,0.00,,---,0.00,VWS V14.01,2013-08-21 05:31:00,
2013-08-20 23:36:00,64.6,32.5,24.78,SE,128,4.9,4.9,30,0.00,,---,0.00,VWS V14.01,2013-08-21 05:36:00,
2013-08-20 23:41:00,65.1,32.9,24.78,ENE,77,5.8,5.8,30,0.00,,---,0.00,VWS V14.01,2013-08-21 05:41:00,
2013-08-20 23:46:00,64.8,32.6,24.78,ENE,61,0.0,0.0,30,0.00,,---,0.00,VWS V14.01,2013-08-21 05:46:00,
2013-08-20 23:51:00,64.2,33.0,24.78,ENE,60,0.0,0.0,31,0.00,,---,0.00,VWS V14.01,2013-08-21 05:51:00,
2013-08-20 23:56:00,63.7,33.3,24.78,ENE,61,0.0,0.0,32,0.00,,---,0.00,VWS V14.01,2013-08-21 05:56:00,